Terminal Aerodrome Forecast
Issued by NWS Grand Rapids, MI

Home | Current Version | Previous Version | Text Only | Print | Product List | Glossary On
Versions: 1 2 3 4 5 6 7 8 9 10 11 12 13 14 15 16 17 18 19 20 21 22
556
FTUS43 KGRR 242340
TAFGRR
TAF
KGRR 242340Z 2500/2524 28009KT P6SM BKN015 OVC022
     FM250400 VRB03KT 5SM -RASN BR OVC010
     FM250800 12003KT 4SM BR OVC015
     FM251300 10007KT 2SM BR OVC015
     FM251400 10007KT 1 1/2SM -RA BR OVC007
     FM251500 11008KT 1 1/2SM -RA BR OVC003=

USA.gov is the U.S. government's official web portal to all federal, state and local government web resources and services.